Time;durP1;ratioP1;P1;durP2;ratioP2;P2;SDS_P1;SDS_P2;PMS_P1;PMS_P2;Temp;Humidity;BMP_temperature;BMP_pressure;BME280_temperature;BME280_humidity;BME280_pressure;Samples;Min_cycle;Max_cycle;Signal;HPM_P1;HPM_P2
2021/04/06 00:01:30;;;;;;;3.35;1.05;;;2.30;99.90;;;;;;5094056;28;20227;-68
2021/04/06 00:03:57;;;;;;;1.50;1.40;;;2.20;99.90;;;;;;5094085;28;20206;-68
2021/04/06 00:06:24;;;;;;;1.20;1.00;;;2.20;99.90;;;;;;5093533;28;20228;-67
2021/04/06 00:08:52;;;;;;;0.50;0.50;;;2.20;99.90;;;;;;5093992;28;20206;-68
2021/04/06 00:11:19;;;;;;;1.05;0.80;;;2.20;99.90;;;;;;5093965;28;20319;-68
2021/04/06 00:13:47;;;;;;;1.88;0.95;;;2.20;99.90;;;;;;5093714;28;20656;-68
2021/04/06 00:16:13;;;;;;;1.50;1.00;;;2.20;99.90;;;;;;5093602;28;20257;-68
2021/04/06 00:18:42;;;;;;;1.48;0.77;;;2.10;99.90;;;;;;5093808;28;20202;-68
2021/04/06 00:21:10;;;;;;;1.35;1.25;;;2.10;99.90;;;;;;5093806;28;20297;-68
2021/04/06 00:23:37;;;;;;;1.60;0.90;;;2.10;99.90;;;;;;5093934;28;20608;-68
2021/04/06 00:26:04;;;;;;;1.02;0.90;;;2.00;99.90;;;;;;5093561;28;20228;-68
2021/04/06 00:28:34;;;;;;;2.47;0.80;;;2.00;99.90;;;;;;5093679;28;20226;-68
2021/04/06 00:31:02;;;;;;;1.58;1.00;;;2.00;99.90;;;;;;5093779;28;20683;-68
2021/04/06 00:33:32;;;;;;;1.02;0.80;;;2.10;99.90;;;;;;5093836;28;20234;-68
2021/04/06 00:36:00;;;;;;;1.20;0.80;;;2.10;99.90;;;;;;5097612;28;20218;-67
2021/04/06 00:38:31;;;;;;;2.45;1.15;;;2.10;99.90;;;;;;5097860;28;20201;-68
2021/04/06 00:41:02;;;;;;;1.48;1.00;;;2.10;99.90;;;;;;5097875;28;20214;-68
2021/04/06 00:43:34;;;;;;;1.52;1.08;;;2.10;99.90;;;;;;5097696;28;20288;-68
2021/04/06 00:46:01;;;;;;;3.25;1.15;;;2.10;99.90;;;;;;5097463;28;20226;-68
2021/04/06 00:48:28;;;;;;;2.20;1.35;;;2.10;99.90;;;;;;5097667;28;20218;-68
2021/04/06 00:51:08;;;;;;;1.75;0.95;;;2.10;99.90;;;;;;5097423;28;20202;-68
2021/04/06 00:53:58;;;;;;;2.05;1.00;;;2.10;99.90;;;;;;5097608;28;20549;-68
2021/04/06 00:56:26;;;;;;;2.03;1.02;;;2.10;99.90;;;;;;5097005;28;20356;-68
2021/04/06 00:58:53;;;;;;;5.78;1.25;;;2.10;99.90;;;;;;5097476;28;20206;-68
2021/04/06 01:01:37;;;;;;;1.38;1.00;;;2.10;99.90;;;;;;5097419;28;20202;-68
2021/04/06 01:04:06;;;;;;;1.10;1.00;;;2.10;99.90;;;;;;5097370;28;20289;-68
2021/04/06 01:06:34;;;;;;;1.20;1.13;;;2.00;99.90;;;;;;5096651;28;20270;-67
2021/04/06 01:09:00;;;;;;;1.20;0.95;;;2.00;99.90;;;;;;5097292;28;20206;-68
2021/04/06 01:11:27;;;;;;;1.80;1.10;;;1.90;99.90;;;;;;5097003;28;20674;-68
2021/04/06 01:14:00;;;;;;;2.17;1.30;;;1.90;99.90;;;;;;5097216;28;20608;-68
2021/04/06 01:16:26;;;;;;;4.15;1.58;;;1.90;99.90;;;;;;5096873;28;20693;-68
2021/04/06 01:18:53;;;;;;;3.83;1.17;;;1.80;99.90;;;;;;5097185;28;20293;-68
2021/04/06 01:21:19;;;;;;;1.08;0.95;;;1.90;99.90;;;;;;5096743;28;20289;-68
2021/04/06 01:23:46;;;;;;;2.17;1.35;;;1.80;99.90;;;;;;5097033;28;20610;-68
2021/04/06 01:26:13;;;;;;;3.75;0.80;;;1.80;99.90;;;;;;5096668;28;20222;-68
2021/04/06 01:28:40;;;;;;;1.13;1.10;;;1.90;99.90;;;;;;5096855;28;20225;-68
2021/04/06 01:31:08;;;;;;;1.45;1.10;;;1.90;99.90;;;;;;5097020;28;20251;-68
2021/04/06 01:33:36;;;;;;;1.75;1.25;;;1.90;99.90;;;;;;5096818;28;20548;-68
2021/04/06 01:36:05;;;;;;;1.30;1.13;;;1.80;99.90;;;;;;5096338;28;20275;-68
2021/04/06 01:38:33;;;;;;;2.20;1.00;;;1.80;99.90;;;;;;5096739;28;20202;-68
2021/04/06 01:41:02;;;;;;;0.95;0.80;;;1.80;99.90;;;;;;5097589;28;20591;-68
2021/04/06 01:43:29;;;;;;;2.55;1.20;;;1.80;99.90;;;;;;5096286;28;20206;-68
2021/04/06 01:45:57;;;;;;;1.95;1.08;;;1.80;99.90;;;;;;5096122;28;20222;-68
2021/04/06 01:48:28;;;;;;;2.28;1.65;;;1.80;99.90;;;;;;5096478;28;20226;-68
2021/04/06 01:50:55;;;;;;;3.42;0.82;;;1.80;99.90;;;;;;5096301;28;20214;-68
2021/04/06 01:53:23;;;;;;;1.20;1.00;;;1.80;99.90;;;;;;5096259;28;20206;-68
2021/04/06 01:55:54;;;;;;;2.47;1.20;;;1.80;99.90;;;;;;5096298;28;20221;-68
2021/04/06 01:58:24;;;;;;;1.52;1.42;;;1.80;99.90;;;;;;5096329;28;20201;-68
2021/04/06 02:01:03;;;;;;;2.20;1.25;;;1.70;99.90;;;;;;5096329;28;20198;-68
2021/04/06 02:03:33;;;;;;;2.25;0.85;;;1.70;99.90;;;;;;5096380;28;20190;-68
2021/04/06 02:06:00;;;;;;;1.50;1.05;;;1.70;99.90;;;;;;5096089;28;20627;-68
2021/04/06 02:08:28;;;;;;;1.10;0.98;;;1.70;99.90;;;;;;5095998;28;20229;-68
2021/04/06 02:10:55;;;;;;;2.05;1.20;;;1.70;99.90;;;;;;5096019;28;20206;-68
2021/04/06 02:13:22;;;;;;;2.33;1.40;;;1.70;99.90;;;;;;5095985;28;20617;-68
2021/04/06 02:15:55;;;;;;;2.00;1.45;;;1.60;99.90;;;;;;5095715;28;20309;-68
2021/04/06 02:18:23;;;;;;;2.15;1.08;;;1.60;99.90;;;;;;5096097;28;20194;-68
2021/04/06 02:20:54;;;;;;;2.15;1.40;;;1.60;99.90;;;;;;5095919;28;20198;-68
2021/04/06 02:23:21;;;;;;;1.88;1.40;;;1.60;99.90;;;;;;5095779;28;20668;-68
2021/04/06 02:25:55;;;;;;;2.60;1.92;;;1.50;99.90;;;;;;5095787;28;20320;-68
2021/04/06 02:28:23;;;;;;;4.10;1.30;;;1.50;99.90;;;;;;5095775;28;20230;-68
2021/04/06 02:30:54;;;;;;;1.35;1.20;;;1.40;99.90;;;;;;5095818;28;20205;-67
2021/04/06 02:33:26;;;;;;;1.52;1.42;;;1.40;99.90;;;;;;5095794;28;20209;-68
2021/04/06 02:36:02;;;;;;;2.35;1.35;;;1.30;99.90;;;;;;5095500;28;20222;-68
2021/04/06 02:38:30;;;;;;;2.60;1.63;;;1.30;99.90;;;;;;5095572;28;20198;-68
2021/04/06 02:41:09;;;;;;;1.50;1.38;;;1.30;99.90;;;;;;5095641;28;20336;-68
2021/04/06 02:43:43;;;;;;;3.40;1.65;;;1.30;99.90;;;;;;5095383;28;20201;-68
2021/04/06 02:46:10;;;;;;;2.63;1.83;;;1.30;99.90;;;;;;5095146;28;20304;-68
2021/04/06 02:48:37;;;;;;;1.77;1.10;;;1.20;99.90;;;;;;5095329;28;20625;-68
2021/04/06 02:51:04;;;;;;;1.65;1.02;;;1.30;99.90;;;;;;5095090;28;20201;-68
2021/04/06 02:53:32;;;;;;;2.90;1.15;;;1.30;99.90;;;;;;5095378;28;20202;-68
2021/04/06 02:55:59;;;;;;;2.67;1.10;;;1.30;99.90;;;;;;5094871;28;20696;-67
2021/04/06 02:58:25;;;;;;;1.10;0.90;;;1.30;99.90;;;;;;5094563;28;20262;-68
2021/04/06 03:00:52;;;;;;;1.25;0.90;;;1.20;99.90;;;;;;5095157;28;20202;-68
2021/04/06 03:03:20;;;;;;;5.40;1.70;;;1.20;99.90;;;;;;5095095;28;20297;-68
2021/04/06 03:05:47;;;;;;;2.45;1.48;;;1.20;99.90;;;;;;5094754;28;20226;-68
2021/04/06 03:08:14;;;;;;;1.40;1.30;;;1.20;99.90;;;;;;5094813;28;20225;-68
2021/04/06 03:10:40;;;;;;;1.10;1.00;;;1.20;99.90;;;;;;5094970;28;20597;-68
2021/04/06 03:13:08;;;;;;;6.85;1.50;;;1.20;99.90;;;;;;5094966;28;20288;-68
2021/04/06 03:15:34;;;;;;;1.38;1.00;;;1.20;99.90;;;;;;5094769;28;20208;-68
2021/04/06 03:18:05;;;;;;;3.00;1.30;;;1.20;99.90;;;;;;5094785;28;20202;-67
2021/04/06 03:20:35;;;;;;;1.35;1.08;;;1.20;99.90;;;;;;5094742;28;20256;-68
2021/04/06 03:23:03;;;;;;;2.65;1.45;;;1.20;99.90;;;;;;5094854;28;20255;-68
2021/04/06 03:25:31;;;;;;;2.30;1.30;;;1.20;99.90;;;;;;5094993;28;20243;-68
2021/04/06 03:28:06;;;;;;;2.17;1.15;;;1.20;99.90;;;;;;5094374;28;20267;-68
2021/04/06 03:30:32;;;;;;;1.02;0.93;;;1.20;99.90;;;;;;5094586;28;20205;-68
2021/04/06 03:33:01;;;;;;;1.17;1.08;;;1.20;99.90;;;;;;5094350;28;20202;-68
2021/04/06 03:35:29;;;;;;;2.05;1.40;;;1.20;99.90;;;;;;5094470;28;20202;-68
2021/04/06 03:37:56;;;;;;;2.38;1.60;;;1.30;99.90;;;;;;5094301;28;20194;-68
2021/04/06 03:40:22;;;;;;;2.75;2.08;;;1.30;99.90;;;;;;5094353;28;20204;-67
2021/04/06 03:42:49;;;;;;;1.42;1.25;;;1.30;99.90;;;;;;5094499;28;20202;-68
2021/04/06 03:45:16;;;;;;;1.38;1.27;;;1.40;99.90;;;;;;5094241;28;20232;-67
2021/04/06 03:47:55;;;;;;;2.10;1.73;;;1.30;99.90;;;;;;5094018;28;20653;-68
2021/04/06 03:50:36;;;;;;;2.38;1.65;;;1.30;99.90;;;;;;5094334;28;20210;-67
2021/04/06 03:53:04;;;;;;;2.20;1.25;;;1.30;99.90;;;;;;5094315;28;20202;-68
2021/04/06 03:55:31;;;;;;;3.80;1.70;;;1.30;99.90;;;;;;5094041;28;20262;-68
2021/04/06 03:58:07;;;;;;;2.97;1.90;;;1.40;99.90;;;;;;5094065;28;20234;-68
2021/04/06 04:00:33;;;;;;;5.57;1.75;;;1.40;99.90;;;;;;5094234;28;20202;-68
2021/04/06 04:03:00;;;;;;;1.20;1.10;;;1.40;99.90;;;;;;5094088;28;20241;-68
2021/04/06 04:05:27;;;;;;;6.38;1.52;;;1.40;99.90;;;;;;5093852;28;20259;-68
2021/04/06 04:07:54;;;;;;;1.92;1.30;;;1.50;99.90;;;;;;5093449;28;20691;-68
2021/04/06 04:10:20;;;;;;;4.95;1.50;;;1.40;99.90;;;;;;5093714;28;20304;-68
2021/04/06 04:12:47;;;;;;;2.67;1.45;;;1.40;99.90;;;;;;5093954;28;20209;-68
2021/04/06 04:15:14;;;;;;;4.75;3.08;;;1.40;99.90;;;;;;5094025;28;20619;-68
2021/04/06 04:17:40;;;;;;;2.40;1.35;;;1.50;99.90;;;;;;5093603;28;20301;-68
2021/04/06 04:20:09;;;;;;;3.85;2.20;;;1.50;99.90;;;;;;5093839;28;20206;-68
2021/04/06 04:22:35;;;;;;;2.00;1.70;;;1.50;99.90;;;;;;5093727;28;20209;-68
2021/04/06 04:25:04;;;;;;;2.03;1.20;;;1.50;99.90;;;;;;5093797;28;20202;-68
2021/04/06 04:27:30;;;;;;;2.00;1.38;;;1.50;99.90;;;;;;5093419;28;20221;-68
2021/04/06 04:29:57;;;;;;;3.13;1.73;;;1.60;99.90;;;;;;5093588;28;20214;-68
2021/04/06 04:32:23;;;;;;;3.45;1.40;;;1.60;99.90;;;;;;5093666;28;20289;-68
2021/04/06 04:34:50;;;;;;;1.75;1.65;;;1.60;99.90;;;;;;5093697;28;20293;-68
2021/04/06 04:37:16;;;;;;;1.73;1.58;;;1.60;99.90;;;;;;5093235;28;20646;-68
2021/04/06 04:39:42;;;;;;;2.55;1.67;;;1.60;99.90;;;;;;5094320;28;20202;-68
2021/04/06 04:42:10;;;;;;;3.85;1.70;;;1.60;99.90;;;;;;5093641;28;20270;-68
2021/04/06 04:44:36;;;;;;;6.03;2.20;;;1.60;99.90;;;;;;5093250;28;20309;-68
2021/04/06 04:47:03;;;;;;;1.75;1.25;;;1.50;99.90;;;;;;5093054;28;20228;-67
2021/04/06 04:49:29;;;;;;;2.00;1.65;;;1.50;99.90;;;;;;5093614;28;20209;-68
2021/04/06 04:51:55;;;;;;;2.70;1.67;;;1.50;99.90;;;;;;5093238;28;20683;-68
2021/04/06 04:54:22;;;;;;;4.55;2.10;;;1.40;99.90;;;;;;5093502;28;20297;-68
2021/04/06 04:56:48;;;;;;;7.95;3.50;;;1.40;99.90;;;;;;5093371;28;20233;-67
2021/04/06 04:59:15;;;;;;;5.78;2.78;;;1.50;99.90;;;;;;5093097;28;20660;-68
2021/04/06 05:01:42;;;;;;;3.50;1.65;;;1.40;99.90;;;;;;5093491;28;20209;-68
2021/04/06 05:04:08;;;;;;;2.55;1.35;;;1.40;99.90;;;;;;5093557;28;20230;-68
2021/04/06 05:06:34;;;;;;;2.05;1.30;;;1.40;99.90;;;;;;5093193;28;20638;-67
2021/04/06 05:09:01;;;;;;;2.53;1.50;;;1.40;99.90;;;;;;5093318;28;20240;-68
2021/04/06 05:11:28;;;;;;;4.93;1.92;;;1.40;99.90;;;;;;5093407;28;20227;-68
2021/04/06 05:13:54;;;;;;;4.03;1.75;;;1.40;99.90;;;;;;5093399;28;20203;-68
2021/04/06 05:16:22;;;;;;;3.85;1.83;;;1.50;99.90;;;;;;5093192;28;20316;-67
2021/04/06 05:18:48;;;;;;;3.58;2.10;;;1.40;99.90;;;;;;5093355;28;20285;-68
2021/04/06 05:21:15;;;;;;;4.10;2.00;;;1.50;99.90;;;;;;5095905;28;20579;-68
2021/04/06 05:23:42;;;;;;;3.00;1.83;;;1.50;99.90;;;;;;5096938;28;20263;-67
2021/04/06 05:26:08;;;;;;;3.10;1.80;;;1.50;99.90;;;;;;5096901;28;20563;-67
2021/04/06 05:28:35;;;;;;;2.28;1.67;;;1.50;99.90;;;;;;5096940;28;20248;-68
2021/04/06 05:31:01;;;;;;;3.05;2.20;;;1.50;99.90;;;;;;5096866;28;20209;-68
2021/04/06 05:33:28;;;;;;;7.03;3.85;;;1.50;99.90;;;;;;5096904;28;20205;-68
2021/04/06 05:35:54;;;;;;;4.40;1.75;;;1.50;99.90;;;;;;5096731;28;20225;-68
2021/04/06 05:38:21;;;;;;;4.80;2.03;;;1.60;99.90;;;;;;5096790;28;20297;-68
2021/04/06 05:40:47;;;;;;;3.65;1.60;;;1.60;99.90;;;;;;5096871;28;20544;-68
2021/04/06 05:43:15;;;;;;;4.13;2.00;;;1.70;99.90;;;;;;5096532;28;20293;-68
2021/04/06 05:45:45;;;;;;;3.78;1.90;;;1.70;99.90;;;;;;5096438;28;20206;-68
2021/04/06 05:48:15;;;;;;;3.00;2.28;;;1.70;99.90;;;;;;5096583;28;20217;-68
2021/04/06 05:50:45;;;;;;;3.67;1.92;;;1.70;99.90;;;;;;5096533;28;20577;-68
2021/04/06 05:53:12;;;;;;;4.45;1.85;;;1.70;99.90;;;;;;5096529;28;20213;-68
2021/04/06 05:55:39;;;;;;;5.20;2.28;;;1.70;99.90;;;;;;5096389;28;20590;-68
2021/04/06 05:58:05;;;;;;;4.22;2.00;;;1.70;99.90;;;;;;5096179;28;20665;-68
2021/04/06 06:00:31;;;;;;;10.48;2.35;;;1.80;99.90;;;;;;5096249;28;20289;-68
2021/04/06 06:02:59;;;;;;;2.72;2.20;;;1.80;99.90;;;;;;5096326;28;20228;-68
2021/04/06 06:05:25;;;;;;;2.97;1.63;;;1.80;99.90;;;;;;5096273;28;20208;-68
2021/04/06 06:07:52;;;;;;;3.80;2.28;;;1.90;99.90;;;;;;5096054;28;20308;-68
2021/04/06 06:10:27;;;;;;;3.80;1.80;;;1.90;99.90;;;;;;5096175;28;20623;-68
2021/04/06 06:12:53;;;;;;;3.78;1.70;;;1.90;99.90;;;;;;5096089;28;20627;-68
2021/04/06 06:15:20;;;;;;;2.15;1.80;;;2.00;99.90;;;;;;5096052;28;20206;-68
2021/04/06 06:18:01;;;;;;;2.38;1.50;;;2.00;99.90;;;;;;5095774;28;20226;-68
2021/04/06 06:20:28;;;;;;;6.15;1.90;;;2.00;99.90;;;;;;5095902;28;20293;-68
2021/04/06 06:22:55;;;;;;;4.03;2.00;;;2.00;99.90;;;;;;5095889;28;20202;-68
2021/04/06 06:25:21;;;;;;;5.45;2.30;;;2.10;99.90;;;;;;5095804;28;20628;-68
2021/04/06 06:27:48;;;;;;;3.97;2.00;;;2.10;99.90;;;;;;5095256;28;20229;-68
2021/04/06 06:30:27;;;;;;;2.45;1.58;;;2.10;99.90;;;;;;5095848;28;20202;-67
2021/04/06 06:33:13;;;;;;;8.07;3.80;;;2.20;99.90;;;;;;5094696;28;20225;-68
2021/04/06 06:35:40;;;;;;;3.33;2.47;;;2.30;99.90;;;;;;5095564;28;20289;-68
2021/04/06 06:38:19;;;;;;;3.60;2.20;;;2.30;99.90;;;;;;5095510;28;20568;-68
2021/04/06 06:40:47;;;;;;;3.00;1.88;;;2.30;99.90;;;;;;5095546;28;20289;-68
2021/04/06 06:43:16;;;;;;;2.00;1.75;;;2.40;99.90;;;;;;5095317;28;20640;-68
2021/04/06 06:45:43;;;;;;;3.33;2.15;;;2.30;99.90;;;;;;5095182;28;20205;-68
2021/04/06 06:48:10;;;;;;;3.15;1.50;;;2.40;99.90;;;;;;5095189;28;20328;-68
2021/04/06 06:50:47;;;;;;;4.95;2.20;;;2.30;99.90;;;;;;5095043;28;20208;-68
2021/04/06 06:53:14;;;;;;;2.80;1.63;;;2.40;99.90;;;;;;5095009;28;20687;-68
2021/04/06 06:55:51;;;;;;;3.22;1.90;;;2.40;99.90;;;;;;5095194;28;20217;-68
2021/04/06 06:58:29;;;;;;;4.25;2.20;;;2.40;99.90;;;;;;5094854;28;20655;-68
2021/04/06 07:00:56;;;;;;;8.25;2.45;;;2.50;99.90;;;;;;5095158;28;20710;-68
2021/04/06 07:03:22;;;;;;;2.20;2.00;;;2.50;99.90;;;;;;5095081;28;20208;-68
2021/04/06 07:05:48;;;;;;;3.03;1.70;;;2.50;99.90;;;;;;5095043;28;20222;-68
2021/04/06 07:08:15;;;;;;;4.40;2.38;;;2.60;99.90;;;;;;5094632;28;20312;-68
2021/04/06 07:10:43;;;;;;;2.40;1.98;;;2.70;99.90;;;;;;5095035;28;20217;-68
2021/04/06 07:13:14;;;;;;;5.90;1.83;;;2.70;99.90;;;;;;5094922;28;20244;-68
2021/04/06 07:15:42;;;;;;;4.30;2.17;;;2.80;99.90;;;;;;5095218;28;20293;-68
2021/04/06 07:18:12;;;;;;;4.18;1.85;;;2.90;99.90;;;;;;5094683;28;20204;-68
2021/04/06 07:20:40;;;;;;;2.55;1.48;;;2.90;99.90;;;;;;5095360;28;20209;-68
2021/04/06 07:23:11;;;;;;;8.82;2.25;;;2.90;99.90;;;;;;5094747;28;20263;-68
2021/04/06 07:25:41;;;;;;;2.25;1.77;;;3.00;99.90;;;;;;5094644;28;20293;-68
2021/04/06 07:28:08;;;;;;;4.47;2.00;;;3.20;99.90;;;;;;5094540;28;20218;-68
2021/04/06 07:30:34;;;;;;;2.15;1.58;;;3.20;99.90;;;;;;5094667;28;20212;-68
2021/04/06 07:33:01;;;;;;;2.15;1.80;;;3.30;99.90;;;;;;5094524;28;20206;-68
2021/04/06 07:35:28;;;;;;;1.92;1.73;;;3.40;99.90;;;;;;5094450;28;20562;-68
2021/04/06 07:37:54;;;;;;;6.10;1.85;;;3.60;99.90;;;;;;5094396;28;20289;-68
2021/04/06 07:40:24;;;;;;;4.38;1.90;;;3.60;99.70;;;;;;5094870;28;20301;-68
2021/04/06 07:42:52;;;;;;;4.13;1.90;;;3.60;99.70;;;;;;5094140;28;20288;-68
2021/04/06 07:45:41;;;;;;;2.88;2.05;;;3.70;99.60;;;;;;5094120;28;20644;-68
2021/04/06 07:48:09;;;;;;;3.40;2.10;;;3.80;99.40;;;;;;5094087;28;20218;-68
2021/04/06 07:50:38;;;;;;;2.47;1.60;;;3.90;98.90;;;;;;5094187;28;20289;-68
2021/04/06 07:53:26;;;;;;;4.53;2.45;;;4.00;98.90;;;;;;5094289;28;20197;-68
2021/04/06 07:55:54;;;;;;;2.97;1.92;;;4.00;98.90;;;;;;5089553;28;20218;-68
2021/04/06 07:58:43;;;;;;;3.45;2.22;;;4.10;98.60;;;;;;5094336;28;20292;-68
2021/04/06 08:01:11;;;;;;;3.63;1.50;;;4.10;98.70;;;;;;5094055;28;20255;-68
2021/04/06 08:04:01;;;;;;;5.13;2.25;;;4.00;98.50;;;;;;5094132;28;20243;-68
2021/04/06 08:06:31;;;;;;;3.50;2.33;;;3.80;99.10;;;;;;5093808;28;20219;-68
2021/04/06 08:08:57;;;;;;;2.85;1.70;;;3.80;99.30;;;;;;5094058;28;20316;-68
2021/04/06 08:12:11;;;;;;;3.75;2.53;;;3.90;99.70;;;;;;5093897;28;20197;-68
2021/04/06 08:14:39;;;;;;;7.47;2.28;;;4.10;99.30;;;;;;5094200;28;20202;-66
2021/04/06 08:17:44;;;;;;;5.10;1.80;;;4.20;99.20;;;;;;5093707;28;20348;-66
2021/04/06 08:20:35;;;;;;;3.20;1.90;;;4.20;98.50;;;;;;5093823;28;20300;-68
2021/04/06 08:23:03;;;;;;;2.25;1.30;;;4.10;97.80;;;;;;5093665;28;20702;-68
2021/04/06 08:25:56;;;;;;;3.28;1.50;;;4.10;98.20;;;;;;5093675;28;20197;-68
2021/04/06 08:28:38;;;;;;;3.72;1.90;;;4.00;98.20;;;;;;5093592;28;20226;-68
2021/04/06 08:31:33;;;;;;;4.40;1.63;;;4.10;98.80;;;;;;5093677;28;20210;-68
2021/04/06 08:34:39;;;;;;;4.22;2.30;;;4.30;99.00;;;;;;5093739;28;20259;-68
2021/04/06 08:37:34;;;;;;;5.15;2.53;;;4.40;99.00;;;;;;5093507;28;20312;-68
2021/04/06 08:40:00;;;;;;;4.13;1.98;;;4.40;98.20;;;;;;5093692;28;20202;-68
2021/04/06 08:42:27;;;;;;;3.88;1.33;;;4.40;97.90;;;;;;5093649;28;20198;-68
2021/04/06 08:44:58;;;;;;;2.25;1.90;;;4.20;97.80;;;;;;5093191;28;20210;-68
2021/04/06 08:47:37;;;;;;;1.98;1.75;;;4.10;97.80;;;;;;5093229;28;20226;-68
2021/04/06 08:50:06;;;;;;;3.83;2.00;;;4.00;98.10;;;;;;5093512;28;20212;-68
2021/04/06 08:52:36;;;;;;;3.17;1.80;;;3.90;98.00;;;;;;5093408;28;20202;-68
2021/04/06 08:55:11;;;;;;;2.83;1.70;;;3.70;98.90;;;;;;5094277;28;20298;-68
2021/04/06 08:57:39;;;;;;;3.28;2.30;;;3.70;99.90;;;;;;5097097;28;20304;-68
2021/04/06 09:00:11;;;;;;;6.32;1.60;;;3.70;99.90;;;;;;5097552;28;20204;-68
2021/04/06 09:02:38;;;;;;;3.65;1.80;;;3.70;99.80;;;;;;5097464;28;20202;-68
2021/04/06 09:05:05;;;;;;;3.15;1.55;;;3.80;99.70;;;;;;5097288;28;20211;-68
2021/04/06 09:07:35;;;;;;;2.28;1.40;;;4.00;99.90;;;;;;5097131;28;20318;-68
2021/04/06 09:10:05;;;;;;;3.00;1.73;;;4.00;98.60;;;;;;5097228;28;20660;-68
2021/04/06 09:12:32;;;;;;;1.80;1.48;;;4.00;99.00;;;;;;5097022;28;20297;-68
2021/04/06 09:15:00;;;;;;;1.67;1.33;;;4.10;99.90;;;;;;5097068;28;20201;-68
2021/04/06 09:17:27;;;;;;;4.53;1.98;;;4.40;99.70;;;;;;5096793;28;20228;-68
2021/04/06 09:19:55;;;;;;;1.77;1.65;;;4.60;98.90;;;;;;5097139;28;20228;-68
2021/04/06 09:22:22;;;;;;;2.40;1.40;;;4.60;98.30;;;;;;5096998;28;20197;-68
2021/04/06 09:24:49;;;;;;;3.97;1.92;;;4.70;98.20;;;;;;5096808;28;20213;-68
2021/04/06 09:27:16;;;;;;;1.65;1.55;;;4.70;97.90;;;;;;5096729;28;20218;-68
2021/04/06 09:29:47;;;;;;;3.25;1.90;;;4.80;98.30;;;;;;5096787;28;20202;-68
2021/04/06 09:32:16;;;;;;;1.80;1.60;;;4.80;97.90;;;;;;5096824;28;20712;-68
2021/04/06 09:34:44;;;;;;;3.53;1.45;;;4.70;97.00;;;;;;5096783;28;20292;-68
2021/04/06 09:37:12;;;;;;;3.15;1.70;;;4.60;97.30;;;;;;5096332;28;20734;-68
2021/04/06 09:39:43;;;;;;;1.63;1.52;;;4.40;97.50;;;;;;5096796;28;20339;-68
2021/04/06 09:42:12;;;;;;;3.92;2.30;;;4.50;97.50;;;;;;5096779;28;20230;-68
2021/04/06 09:44:41;;;;;;;2.95;1.60;;;4.60;97.80;;;;;;5096433;28;20221;-68
2021/04/06 09:47:09;;;;;;;2.13;1.40;;;4.60;97.10;;;;;;5096206;28;20312;-68
2021/04/06 09:49:39;;;;;;;3.30;1.90;;;4.60;97.60;;;;;;5096455;28;20313;-68
2021/04/06 09:52:11;;;;;;;2.25;1.70;;;4.60;97.70;;;;;;5096568;28;20202;-68
2021/04/06 09:54:39;;;;;;;4.10;1.70;;;4.60;98.20;;;;;;5096352;28;20241;-68
2021/04/06 09:57:14;;;;;;;2.78;1.70;;;4.70;97.90;;;;;;5096251;28;20274;-68
2021/04/06 09:59:46;;;;;;;5.95;2.05;;;4.60;96.30;;;;;;5096578;28;20243;-68
2021/04/06 10:02:15;;;;;;;2.10;1.77;;;4.90;96.30;;;;;;5096288;28;20227;-68
2021/04/06 10:04:45;;;;;;;4.78;1.70;;;5.10;96.00;;;;;;5096302;28;20205;-68
2021/04/06 10:07:13;;;;;;;1.90;1.50;;;5.30;96.20;;;;;;5095841;28;20222;-66
2021/04/06 10:09:40;;;;;;;1.92;1.63;;;5.30;95.60;;;;;;5096147;28;20226;-68
2021/04/06 10:12:08;;;;;;;2.92;1.52;;;5.40;94.20;;;;;;5096136;28;20297;-68
2021/04/06 10:14:36;;;;;;;4.72;1.90;;;5.50;94.60;;;;;;5096027;28;20661;-68
2021/04/06 10:17:04;;;;;;;4.88;2.10;;;5.50;94.10;;;;;;5095650;28;20233;-68
2021/04/06 10:19:32;;;;;;;6.40;1.67;;;5.50;93.60;;;;;;5096016;28;20207;-68
2021/04/06 10:22:08;;;;;;;4.10;1.65;;;5.50;93.80;;;;;;5096031;28;20289;-68
2021/04/06 10:24:36;;;;;;;2.17;1.13;;;5.40;92.20;;;;;;5095933;28;20202;-68
2021/04/06 10:27:17;;;;;;;1.52;0.80;;;5.70;92.60;;;;;;5095386;28;20313;-68
2021/04/06 10:29:45;;;;;;;5.88;1.83;;;5.80;91.50;;;;;;5095769;28;20233;-68
2021/04/06 10:32:27;;;;;;;2.40;1.30;;;5.60;90.90;;;;;;5095764;28;20202;-68
2021/04/06 10:35:00;;;;;;;2.80;1.70;;;5.60;91.20;;;;;;5095713;28;20296;-68
2021/04/06 10:37:37;;;;;;;4.65;1.40;;;5.80;92.40;;;;;;5095206;28;20253;-68
2021/04/06 10:40:21;;;;;;;3.00;1.42;;;5.90;91.00;;;;;;5095464;28;20202;-68
2021/04/06 10:42:49;;;;;;;1.58;1.25;;;6.50;89.20;;;;;;5095567;28;20289;-68
2021/04/06 10:45:18;;;;;;;2.30;1.00;;;6.90;81.00;;;;;;5095137;28;20732;-68
2021/04/06 10:47:45;;;;;;;2.20;1.45;;;6.80;83.10;;;;;;5095286;28;20320;-68
2021/04/06 10:50:12;;;;;;;2.60;1.30;;;6.40;84.70;;;;;;5095662;28;20569;-68
2021/04/06 10:52:39;;;;;;;6.25;1.88;;;6.20;86.40;;;;;;5095446;28;20198;-68
2021/04/06 10:55:07;;;;;;;2.53;1.80;;;5.80;86.70;;;;;;5095466;28;20297;-68
2021/04/06 10:57:37;;;;;;;2.58;1.50;;;5.90;89.30;;;;;;5095055;28;20267;-68
2021/04/06 11:00:19;;;;;;;9.48;2.30;;;6.20;87.40;;;;;;5095226;28;20202;-67
2021/04/06 11:02:45;;;;;;;2.72;1.63;;;6.40;86.10;;;;;;5095274;28;20202;-68
2021/04/06 11:05:12;;;;;;;3.40;1.60;;;6.20;83.30;;;;;;5094956;28;20210;-68
2021/04/06 11:07:38;;;;;;;2.45;1.70;;;6.10;84.90;;;;;;5094897;28;20589;-68
2021/04/06 11:10:07;;;;;;;2.03;1.70;;;6.00;85.50;;;;;;5095069;28;20297;-68
2021/04/06 11:12:33;;;;;;;2.95;1.85;;;5.70;85.80;;;;;;5095009;28;20343;-68
2021/04/06 11:15:00;;;;;;;2.38;1.88;;;5.90;85.40;;;;;;5094891;28;20300;-68
2021/04/06 11:17:27;;;;;;;3.05;2.08;;;6.10;86.30;;;;;;5093985;28;20226;-68
2021/04/06 11:19:57;;;;;;;1.85;1.40;;;6.00;84.40;;;;;;5094677;28;20247;-68
2021/04/06 11:22:24;;;;;;;6.03;2.42;;;6.00;86.00;;;;;;5094741;28;20301;-68
2021/04/06 11:24:52;;;;;;;6.72;4.13;;;6.10;87.00;;;;;;5094764;28;20262;-68
2021/04/06 11:27:19;;;;;;;3.17;1.80;;;6.10;86.20;;;;;;5094293;28;20218;-68
2021/04/06 11:29:47;;;;;;;2.72;1.50;;;6.00;84.60;;;;;;5094658;28;20229;-68
2021/04/06 11:32:15;;;;;;;4.63;1.75;;;5.80;82.10;;;;;;5094616;28;20208;-68
2021/04/06 11:34:43;;;;;;;1.27;1.20;;;6.60;80.60;;;;;;5094645;28;20308;-68
2021/04/06 11:37:10;;;;;;;1.45;1.05;;;7.90;78.00;;;;;;5094391;28;20626;-68
2021/04/06 11:39:39;;;;;;;1.88;1.25;;;8.80;68.30;;;;;;5094494;28;20288;-68
2021/04/06 11:42:08;;;;;;;3.28;1.90;;;8.70;63.20;;;;;;5094415;28;20198;-68
2021/04/06 11:44:35;;;;;;;2.75;1.50;;;8.50;63.90;;;;;;5094022;28;20771;-68
2021/04/06 11:47:02;;;;;;;4.72;1.83;;;7.80;66.40;;;;;;5094150;28;20321;-68
2021/04/06 11:49:29;;;;;;;3.53;1.80;;;7.00;69.10;;;;;;5094238;28;20229;-68
2021/04/06 11:51:56;;;;;;;2.20;1.40;;;6.90;70.80;;;;;;5094337;28;20205;-68
2021/04/06 11:54:24;;;;;;;3.50;2.60;;;6.60;70.80;;;;;;5094168;28;20292;-68
2021/04/06 11:56:51;;;;;;;1.55;1.40;;;6.30;70.70;;;;;;5093718;28;20226;-68
2021/04/06 11:59:18;;;;;;;2.20;1.35;;;6.10;72.60;;;;;;5094173;28;20592;-68
2021/04/06 12:01:45;;;;;;;3.47;1.80;;;5.70;73.50;;;;;;5094153;28;20293;-68
2021/04/06 12:04:12;;;;;;;3.17;2.00;;;5.70;76.30;;;;;;5094117;28;20256;-68
2021/04/06 12:06:39;;;;;;;4.10;1.58;;;5.90;77.50;;;;;;5093932;28;20316;-68
2021/04/06 12:09:08;;;;;;;3.88;1.83;;;6.00;76.20;;;;;;5093984;28;20305;-68
2021/04/06 12:11:35;;;;;;;6.20;1.70;;;6.10;73.30;;;;;;5093929;28;20208;-68
2021/04/06 12:14:01;;;;;;;0.68;0.68;;;6.00;70.90;;;;;;5093919;28;20638;-68
2021/04/06 12:16:27;;;;;;;3.72;1.80;;;5.90;72.00;;;;;;5093609;28;20222;-68
2021/04/06 12:18:54;;;;;;;1.95;1.60;;;6.00;73.50;;;;;;5093946;28;20206;-68
2021/04/06 12:21:20;;;;;;;2.05;1.42;;;6.20;73.70;;;;;;5093984;28;20297;-68
2021/04/06 12:23:47;;;;;;;4.85;2.80;;;6.40;72.70;;;;;;5093844;28;20230;-68
2021/04/06 12:26:14;;;;;;;3.20;2.00;;;6.60;72.30;;;;;;5093571;28;20394;-68
2021/04/06 12:28:40;;;;;;;2.47;1.83;;;6.80;71.40;;;;;;5093436;28;20313;-68
2021/04/06 12:31:07;;;;;;;1.77;1.58;;;6.90;69.40;;;;;;5092865;28;20205;-68
2021/04/06 12:33:33;;;;;;;2.60;1.83;;;6.90;68.00;;;;;;5093883;28;20293;-68
2021/04/06 12:36:00;;;;;;;2.05;1.63;;;7.00;68.80;;;;;;5093442;28;20316;-68
2021/04/06 12:38:26;;;;;;;2.45;2.00;;;7.10;65.40;;;;;;5093697;28;20605;-68
2021/04/06 12:40:54;;;;;;;4.10;1.30;;;7.10;66.30;;;;;;5093659;28;20292;-68
2021/04/06 12:43:21;;;;;;;4.85;1.60;;;7.20;67.30;;;;;;5093556;28;20205;-69
2021/04/06 12:45:47;;;;;;;2.03;1.83;;;7.30;68.00;;;;;;5093201;28;20335;-68
2021/04/06 12:48:14;;;;;;;2.15;1.83;;;7.60;68.30;;;;;;5093229;28;20224;-68
2021/04/06 12:50:40;;;;;;;2.08;1.40;;;7.90;65.30;;;;;;5093544;28;20537;-68
2021/04/06 12:53:06;;;;;;;1.77;1.50;;;8.10;64.10;;;;;;5093267;28;20292;-68
2021/04/06 12:55:33;;;;;;;3.25;1.65;;;8.00;63.30;;;;;;5093400;28;20575;-68
2021/04/06 12:58:00;;;;;;;2.45;1.20;;;7.80;60.40;;;;;;5093191;28;20289;-68
2021/04/06 13:00:28;;;;;;;1.60;1.17;;;7.70;59.40;;;;;;5093754;28;20199;-68
2021/04/06 13:02:54;;;;;;;1.92;1.40;;;7.60;59.80;;;;;;5093428;28;20212;-68
2021/04/06 13:05:21;;;;;;;1.48;1.38;;;7.50;59.20;;;;;;5093401;28;20301;-68
2021/04/06 13:07:47;;;;;;;3.30;1.70;;;7.70;61.10;;;;;;5092172;28;20463;-66
2021/04/06 13:10:16;;;;;;;1.73;1.60;;;7.80;59.50;;;;;;5093478;28;20287;-66